sensor_id;sensor_type;location;lat;lon;timestamp;P1;durP1;ratioP1;P2;durP2;ratioP2
14231;SDS011;7200;52.194;9.900;2024-02-26T00:02:10;0.60;;;0.60;;
14231;SDS011;7200;52.194;9.900;2024-02-26T00:04:35;0.30;;;0.30;;
14231;SDS011;7200;52.194;9.900;2024-02-26T00:07:01;0.40;;;0.40;;
14231;SDS011;7200;52.194;9.900;2024-02-26T00:09:26;0.30;;;0.30;;
14231;SDS011;7200;52.194;9.900;2024-02-26T00:11:52;0.20;;;0.20;;
14231;SDS011;7200;52.194;9.900;2024-02-26T00:14:17;0.50;;;0.50;;
14231;SDS011;7200;52.194;9.900;2024-02-26T00:16:42;0.83;;;0.83;;
14231;SDS011;7200;52.194;9.900;2024-02-26T00:19:10;0.30;;;0.30;;
14231;SDS011;7200;52.194;9.900;2024-02-26T00:21:35;0.20;;;0.20;;
14231;SDS011;7200;52.194;9.900;2024-02-26T00:24:00;4.07;;;0.70;;
14231;SDS011;7200;52.194;9.900;2024-02-26T00:26:25;0.40;;;0.40;;
14231;SDS011;7200;52.194;9.900;2024-02-26T00:28:51;0.30;;;0.30;;
14231;SDS011;7200;52.194;9.900;2024-02-26T00:31:16;0.40;;;0.40;;
14231;SDS011;7200;52.194;9.900;2024-02-26T00:33:42;0.67;;;0.67;;
14231;SDS011;7200;52.194;9.900;2024-02-26T00:36:07;0.30;;;0.30;;
14231;SDS011;7200;52.194;9.900;2024-02-26T00:38:32;0.30;;;0.30;;
14231;SDS011;7200;52.194;9.900;2024-02-26T00:40:58;0.20;;;0.20;;
14231;SDS011;7200;52.194;9.900;2024-02-26T00:43:23;0.30;;;0.30;;
14231;SDS011;7200;52.194;9.900;2024-02-26T00:45:48;0.20;;;0.20;;
14231;SDS011;7200;52.194;9.900;2024-02-26T00:48:13;0.40;;;0.40;;
14231;SDS011;7200;52.194;9.900;2024-02-26T00:50:39;0.33;;;0.33;;
14231;SDS011;7200;52.194;9.900;2024-02-26T00:53:05;0.20;;;0.20;;
14231;SDS011;7200;52.194;9.900;2024-02-26T00:55:30;0.57;;;0.57;;
14231;SDS011;7200;52.194;9.900;2024-02-26T00:57:55;0.30;;;0.30;;
14231;SDS011;7200;52.194;9.900;2024-02-26T01:00:20;0.20;;;0.20;;
14231;SDS011;7200;52.194;9.900;2024-02-26T01:02:46;0.30;;;0.30;;
14231;SDS011;7200;52.194;9.900;2024-02-26T01:05:11;0.20;;;0.20;;
14231;SDS011;7200;52.194;9.900;2024-02-26T01:07:37;0.20;;;0.20;;
14231;SDS011;7200;52.194;9.900;2024-02-26T01:10:03;0.83;;;0.83;;
14231;SDS011;7200;52.194;9.900;2024-02-26T01:12:29;2.93;;;1.67;;
14231;SDS011;7200;52.194;9.900;2024-02-26T01:14:54;0.20;;;0.20;;
14231;SDS011;7200;52.194;9.900;2024-02-26T01:17:20;0.20;;;0.20;;
14231;SDS011;7200;52.194;9.900;2024-02-26T01:19:45;0.50;;;0.50;;
14231;SDS011;7200;52.194;9.900;2024-02-26T01:22:10;0.20;;;0.20;;
14231;SDS011;7200;52.194;9.900;2024-02-26T01:24:36;0.27;;;0.27;;
14231;SDS011;7200;52.194;9.900;2024-02-26T01:27:01;1.30;;;1.30;;
14231;SDS011;7200;52.194;9.900;2024-02-26T01:29:26;0.20;;;0.20;;
14231;SDS011;7200;52.194;9.900;2024-02-26T01:31:52;0.20;;;0.20;;
14231;SDS011;7200;52.194;9.900;2024-02-26T01:34:17;0.27;;;0.27;;
14231;SDS011;7200;52.194;9.900;2024-02-26T01:36:43;0.20;;;0.20;;
14231;SDS011;7200;52.194;9.900;2024-02-26T01:39:09;0.20;;;0.20;;
14231;SDS011;7200;52.194;9.900;2024-02-26T01:41:37;0.20;;;0.20;;
14231;SDS011;7200;52.194;9.900;2024-02-26T01:44:06;0.30;;;0.30;;
14231;SDS011;7200;52.194;9.900;2024-02-26T01:46:32;0.20;;;0.20;;
14231;SDS011;7200;52.194;9.900;2024-02-26T01:48:59;0.20;;;0.20;;
14231;SDS011;7200;52.194;9.900;2024-02-26T01:51:25;0.20;;;0.20;;
14231;SDS011;7200;52.194;9.900;2024-02-26T01:53:50;0.20;;;0.20;;
14231;SDS011;7200;52.194;9.900;2024-02-26T01:56:16;0.50;;;0.50;;
14231;SDS011;7200;52.194;9.900;2024-02-26T01:58:44;0.20;;;0.20;;
14231;SDS011;7200;52.194;9.900;2024-02-26T02:01:10;0.20;;;0.20;;
14231;SDS011;7200;52.194;9.900;2024-02-26T02:03:36;0.30;;;0.30;;
14231;SDS011;7200;52.194;9.900;2024-02-26T02:06:02;0.73;;;0.73;;
14231;SDS011;7200;52.194;9.900;2024-02-26T02:08:28;0.20;;;0.20;;
14231;SDS011;7200;52.194;9.900;2024-02-26T02:10:53;0.20;;;0.20;;
14231;SDS011;7200;52.194;9.900;2024-02-26T02:13:19;0.20;;;0.20;;
14231;SDS011;7200;52.194;9.900;2024-02-26T02:15:44;0.20;;;0.20;;
14231;SDS011;7200;52.194;9.900;2024-02-26T02:18:09;0.20;;;0.20;;
14231;SDS011;7200;52.194;9.900;2024-02-26T02:20:35;0.20;;;0.20;;
14231;SDS011;7200;52.194;9.900;2024-02-26T02:23:01;0.27;;;0.27;;
14231;SDS011;7200;52.194;9.900;2024-02-26T02:25:27;0.63;;;0.63;;
14231;SDS011;7200;52.194;9.900;2024-02-26T02:27:55;0.30;;;0.30;;
14231;SDS011;7200;52.194;9.900;2024-02-26T02:30:23;0.20;;;0.20;;
14231;SDS011;7200;52.194;9.900;2024-02-26T02:32:50;0.20;;;0.20;;
14231;SDS011;7200;52.194;9.900;2024-02-26T02:35:15;0.83;;;0.83;;
14231;SDS011;7200;52.194;9.900;2024-02-26T02:37:41;0.20;;;0.20;;
14231;SDS011;7200;52.194;9.900;2024-02-26T02:40:06;0.60;;;0.60;;
14231;SDS011;7200;52.194;9.900;2024-02-26T02:42:32;0.50;;;0.50;;
14231;SDS011;7200;52.194;9.900;2024-02-26T02:44:57;0.30;;;0.30;;
14231;SDS011;7200;52.194;9.900;2024-02-26T02:47:23;0.20;;;0.20;;
14231;SDS011;7200;52.194;9.900;2024-02-26T02:49:48;0.30;;;0.30;;
14231;SDS011;7200;52.194;9.900;2024-02-26T02:52:13;0.20;;;0.20;;
14231;SDS011;7200;52.194;9.900;2024-02-26T02:54:39;0.20;;;0.20;;
14231;SDS011;7200;52.194;9.900;2024-02-26T02:57:06;0.20;;;0.20;;
14231;SDS011;7200;52.194;9.900;2024-02-26T02:59:32;0.20;;;0.20;;
14231;SDS011;7200;52.194;9.900;2024-02-26T03:01:57;0.23;;;0.23;;
14231;SDS011;7200;52.194;9.900;2024-02-26T03:04:22;1.03;;;1.03;;
14231;SDS011;7200;52.194;9.900;2024-02-26T03:06:48;1.60;;;0.83;;
14231;SDS011;7200;52.194;9.900;2024-02-26T03:09:13;0.30;;;0.30;;
14231;SDS011;7200;52.194;9.900;2024-02-26T03:11:38;1.13;;;0.97;;
14231;SDS011;7200;52.194;9.900;2024-02-26T03:14:04;0.23;;;0.23;;
14231;SDS011;7200;52.194;9.900;2024-02-26T03:16:30;2.47;;;0.70;;
14231;SDS011;7200;52.194;9.900;2024-02-26T03:18:55;0.30;;;0.30;;
14231;SDS011;7200;52.194;9.900;2024-02-26T03:21:21;1.13;;;1.13;;
14231;SDS011;7200;52.194;9.900;2024-02-26T03:23:46;0.20;;;0.20;;
14231;SDS011;7200;52.194;9.900;2024-02-26T03:26:11;0.20;;;0.20;;
14231;SDS011;7200;52.194;9.900;2024-02-26T03:28:39;0.20;;;0.20;;
14231;SDS011;7200;52.194;9.900;2024-02-26T03:31:05;0.20;;;0.20;;
14231;SDS011;7200;52.194;9.900;2024-02-26T03:33:30;0.50;;;0.50;;
14231;SDS011;7200;52.194;9.900;2024-02-26T03:35:55;0.30;;;0.30;;
14231;SDS011;7200;52.194;9.900;2024-02-26T03:38:21;0.20;;;0.20;;
14231;SDS011;7200;52.194;9.900;2024-02-26T03:40:46;0.20;;;0.20;;
14231;SDS011;7200;52.194;9.900;2024-02-26T03:43:11;0.20;;;0.20;;
14231;SDS011;7200;52.194;9.900;2024-02-26T03:45:37;0.40;;;0.40;;
14231;SDS011;7200;52.194;9.900;2024-02-26T03:48:03;0.20;;;0.20;;
14231;SDS011;7200;52.194;9.900;2024-02-26T03:50:28;0.50;;;0.50;;
14231;SDS011;7200;52.194;9.900;2024-02-26T03:52:54;0.10;;;0.10;;
14231;SDS011;7200;52.194;9.900;2024-02-26T03:55:19;0.30;;;0.30;;
14231;SDS011;7200;52.194;9.900;2024-02-26T03:57:49;0.40;;;0.40;;
14231;SDS011;7200;52.194;9.900;2024-02-26T04:00:15;0.20;;;0.20;;
14231;SDS011;7200;52.194;9.900;2024-02-26T04:02:41;0.20;;;0.20;;
14231;SDS011;7200;52.194;9.900;2024-02-26T04:05:08;0.30;;;0.30;;
14231;SDS011;7200;52.194;9.900;2024-02-26T04:07:35;1.50;;;1.17;;
14231;SDS011;7200;52.194;9.900;2024-02-26T04:10:00;0.20;;;0.20;;
14231;SDS011;7200;52.194;9.900;2024-02-26T04:12:28;0.20;;;0.20;;
14231;SDS011;7200;52.194;9.900;2024-02-26T04:14:54;0.30;;;0.30;;
14231;SDS011;7200;52.194;9.900;2024-02-26T04:17:19;0.20;;;0.20;;
14231;SDS011;7200;52.194;9.900;2024-02-26T04:19:44;0.10;;;0.10;;
14231;SDS011;7200;52.194;9.900;2024-02-26T04:22:10;0.20;;;0.20;;
14231;SDS011;7200;52.194;9.900;2024-02-26T04:24:36;0.27;;;0.27;;
14231;SDS011;7200;52.194;9.900;2024-02-26T04:27:01;0.30;;;0.30;;
14231;SDS011;7200;52.194;9.900;2024-02-26T04:29:26;0.20;;;0.20;;
14231;SDS011;7200;52.194;9.900;2024-02-26T04:31:52;0.20;;;0.20;;
14231;SDS011;7200;52.194;9.900;2024-02-26T04:34:17;0.20;;;0.20;;
14231;SDS011;7200;52.194;9.900;2024-02-26T04:36:42;0.30;;;0.30;;
14231;SDS011;7200;52.194;9.900;2024-02-26T04:39:08;0.20;;;0.20;;
14231;SDS011;7200;52.194;9.900;2024-02-26T04:41:33;2.17;;;0.93;;
14231;SDS011;7200;52.194;9.900;2024-02-26T04:43:59;0.50;;;0.50;;
14231;SDS011;7200;52.194;9.900;2024-02-26T04:46:24;0.30;;;0.30;;
14231;SDS011;7200;52.194;9.900;2024-02-26T04:48:50;0.20;;;0.20;;
14231;SDS011;7200;52.194;9.900;2024-02-26T04:51:15;0.57;;;0.57;;
14231;SDS011;7200;52.194;9.900;2024-02-26T04:53:41;0.20;;;0.20;;
14231;SDS011;7200;52.194;9.900;2024-02-26T04:56:06;0.30;;;0.30;;
14231;SDS011;7200;52.194;9.900;2024-02-26T04:58:31;0.30;;;0.30;;
14231;SDS011;7200;52.194;9.900;2024-02-26T05:00:56;0.20;;;0.20;;
14231;SDS011;7200;52.194;9.900;2024-02-26T05:03:22;0.47;;;0.47;;
14231;SDS011;7200;52.194;9.900;2024-02-26T05:05:47;0.50;;;0.50;;
14231;SDS011;7200;52.194;9.900;2024-02-26T05:08:12;0.20;;;0.20;;
14231;SDS011;7200;52.194;9.900;2024-02-26T05:10:39;0.33;;;0.33;;
14231;SDS011;7200;52.194;9.900;2024-02-26T05:13:06;0.40;;;0.40;;
14231;SDS011;7200;52.194;9.900;2024-02-26T05:15:34;0.20;;;0.20;;
14231;SDS011;7200;52.194;9.900;2024-02-26T05:18:00;0.27;;;0.27;;
14231;SDS011;7200;52.194;9.900;2024-02-26T05:20:26;0.20;;;0.20;;
14231;SDS011;7200;52.194;9.900;2024-02-26T05:22:51;0.20;;;0.20;;
14231;SDS011;7200;52.194;9.900;2024-02-26T05:25:16;0.40;;;0.40;;
14231;SDS011;7200;52.194;9.900;2024-02-26T05:27:43;0.60;;;0.60;;
14231;SDS011;7200;52.194;9.900;2024-02-26T05:30:08;0.50;;;0.50;;
14231;SDS011;7200;52.194;9.900;2024-02-26T05:32:34;0.20;;;0.20;;
14231;SDS011;7200;52.194;9.900;2024-02-26T05:35:00;0.20;;;0.20;;
14231;SDS011;7200;52.194;9.900;2024-02-26T05:37:25;0.50;;;0.50;;
14231;SDS011;7200;52.194;9.900;2024-02-26T05:39:50;1.70;;;1.70;;
14231;SDS011;7200;52.194;9.900;2024-02-26T05:42:16;0.20;;;0.20;;
14231;SDS011;7200;52.194;9.900;2024-02-26T05:44:41;0.47;;;0.47;;
14231;SDS011;7200;52.194;9.900;2024-02-26T05:47:06;0.70;;;0.70;;
14231;SDS011;7200;52.194;9.900;2024-02-26T05:49:31;0.23;;;0.23;;
14231;SDS011;7200;52.194;9.900;2024-02-26T05:51:58;0.77;;;0.77;;
14231;SDS011;7200;52.194;9.900;2024-02-26T05:54:23;0.83;;;0.83;;
14231;SDS011;7200;52.194;9.900;2024-02-26T05:56:49;0.90;;;0.90;;
14231;SDS011;7200;52.194;9.900;2024-02-26T05:59:14;0.20;;;0.20;;
14231;SDS011;7200;52.194;9.900;2024-02-26T06:01:40;0.40;;;0.40;;
14231;SDS011;7200;52.194;9.900;2024-02-26T06:04:06;0.20;;;0.20;;
14231;SDS011;7200;52.194;9.900;2024-02-26T06:06:31;0.30;;;0.30;;
14231;SDS011;7200;52.194;9.900;2024-02-26T06:08:57;1.17;;;0.80;;
14231;SDS011;7200;52.194;9.900;2024-02-26T06:11:22;0.60;;;0.60;;
14231;SDS011;7200;52.194;9.900;2024-02-26T06:13:47;0.50;;;0.50;;
14231;SDS011;7200;52.194;9.900;2024-02-26T06:16:13;1.07;;;1.07;;
14231;SDS011;7200;52.194;9.900;2024-02-26T06:18:38;0.30;;;0.30;;
14231;SDS011;7200;52.194;9.900;2024-02-26T06:21:03;1.20;;;1.20;;
14231;SDS011;7200;52.194;9.900;2024-02-26T06:23:29;0.70;;;0.70;;
14231;SDS011;7200;52.194;9.900;2024-02-26T06:25:54;0.23;;;0.23;;
14231;SDS011;7200;52.194;9.900;2024-02-26T06:28:20;0.50;;;0.50;;
14231;SDS011;7200;52.194;9.900;2024-02-26T06:30:45;0.57;;;0.57;;
14231;SDS011;7200;52.194;9.900;2024-02-26T06:33:11;1.17;;;1.07;;
14231;SDS011;7200;52.194;9.900;2024-02-26T06:35:36;0.70;;;0.70;;
14231;SDS011;7200;52.194;9.900;2024-02-26T06:38:01;0.30;;;0.30;;
14231;SDS011;7200;52.194;9.900;2024-02-26T06:40:27;0.70;;;0.70;;
14231;SDS011;7200;52.194;9.900;2024-02-26T06:42:52;0.47;;;0.47;;
14231;SDS011;7200;52.194;9.900;2024-02-26T06:45:18;0.20;;;0.20;;
14231;SDS011;7200;52.194;9.900;2024-02-26T06:47:46;1.40;;;1.40;;
14231;SDS011;7200;52.194;9.900;2024-02-26T06:50:12;1.63;;;0.50;;
14231;SDS011;7200;52.194;9.900;2024-02-26T06:52:38;0.40;;;0.40;;
14231;SDS011;7200;52.194;9.900;2024-02-26T06:55:04;0.77;;;0.77;;
14231;SDS011;7200;52.194;9.900;2024-02-26T06:57:30;0.20;;;0.20;;
14231;SDS011;7200;52.194;9.900;2024-02-26T06:59:55;0.30;;;0.30;;
14231;SDS011;7200;52.194;9.900;2024-02-26T07:02:20;0.30;;;0.30;;
14231;SDS011;7200;52.194;9.900;2024-02-26T07:04:46;0.20;;;0.20;;
14231;SDS011;7200;52.194;9.900;2024-02-26T07:07:11;0.50;;;0.50;;
14231;SDS011;7200;52.194;9.900;2024-02-26T07:09:36;0.80;;;0.80;;
14231;SDS011;7200;52.194;9.900;2024-02-26T07:12:02;0.40;;;0.40;;
14231;SDS011;7200;52.194;9.900;2024-02-26T07:14:28;0.30;;;0.30;;
14231;SDS011;7200;52.194;9.900;2024-02-26T07:16:54;0.30;;;0.30;;
14231;SDS011;7200;52.194;9.900;2024-02-26T07:19:19;0.20;;;0.20;;
14231;SDS011;7200;52.194;9.900;2024-02-26T07:21:44;0.40;;;0.40;;
14231;SDS011;7200;52.194;9.900;2024-02-26T07:24:10;1.50;;;0.40;;
14231;SDS011;7200;52.194;9.900;2024-02-26T07:26:35;1.53;;;1.40;;
14231;SDS011;7200;52.194;9.900;2024-02-26T07:29:00;0.73;;;0.73;;
14231;SDS011;7200;52.194;9.900;2024-02-26T07:31:26;0.67;;;0.67;;
14231;SDS011;7200;52.194;9.900;2024-02-26T07:33:51;0.20;;;0.20;;
14231;SDS011;7200;52.194;9.900;2024-02-26T07:36:16;0.50;;;0.50;;
14231;SDS011;7200;52.194;9.900;2024-02-26T07:38:42;0.30;;;0.30;;
14231;SDS011;7200;52.194;9.900;2024-02-26T07:41:07;1.83;;;1.73;;
14231;SDS011;7200;52.194;9.900;2024-02-26T07:43:33;6.20;;;1.03;;
14231;SDS011;7200;52.194;9.900;2024-02-26T07:45:59;1.07;;;1.07;;
14231;SDS011;7200;52.194;9.900;2024-02-26T07:48:24;0.20;;;0.20;;
14231;SDS011;7200;52.194;9.900;2024-02-26T07:50:49;0.50;;;0.50;;
14231;SDS011;7200;52.194;9.900;2024-02-26T07:53:14;0.40;;;0.40;;
14231;SDS011;7200;52.194;9.900;2024-02-26T07:55:40;1.17;;;1.17;;
14231;SDS011;7200;52.194;9.900;2024-02-26T07:58:05;3.10;;;2.77;;
14231;SDS011;7200;52.194;9.900;2024-02-26T08:00:30;0.80;;;0.77;;
14231;SDS011;7200;52.194;9.900;2024-02-26T08:02:56;1.60;;;1.10;;
14231;SDS011;7200;52.194;9.900;2024-02-26T08:05:21;3.87;;;0.50;;
14231;SDS011;7200;52.194;9.900;2024-02-26T08:07:46;0.57;;;0.57;;
14231;SDS011;7200;52.194;9.900;2024-02-26T08:10:12;0.30;;;0.30;;
14231;SDS011;7200;52.194;9.900;2024-02-26T08:12:37;0.77;;;0.77;;
14231;SDS011;7200;52.194;9.900;2024-02-26T08:15:02;0.50;;;0.50;;
14231;SDS011;7200;52.194;9.900;2024-02-26T08:17:28;0.30;;;0.30;;
14231;SDS011;7200;52.194;9.900;2024-02-26T08:19:53;0.30;;;0.30;;
14231;SDS011;7200;52.194;9.900;2024-02-26T08:22:18;0.30;;;0.30;;
14231;SDS011;7200;52.194;9.900;2024-02-26T08:24:44;0.30;;;0.30;;
14231;SDS011;7200;52.194;9.900;2024-02-26T08:27:09;0.30;;;0.30;;
14231;SDS011;7200;52.194;9.900;2024-02-26T08:29:35;0.50;;;0.50;;
14231;SDS011;7200;52.194;9.900;2024-02-26T08:32:00;1.63;;;1.53;;
14231;SDS011;7200;52.194;9.900;2024-02-26T08:34:26;1.27;;;1.17;;
14231;SDS011;7200;52.194;9.900;2024-02-26T08:36:51;0.33;;;0.33;;
14231;SDS011;7200;52.194;9.900;2024-02-26T08:39:17;0.40;;;0.40;;
14231;SDS011;7200;52.194;9.900;2024-02-26T08:41:43;0.67;;;0.67;;
14231;SDS011;7200;52.194;9.900;2024-02-26T08:44:08;1.97;;;0.93;;
14231;SDS011;7200;52.194;9.900;2024-02-26T08:46:34;1.37;;;1.37;;
14231;SDS011;7200;52.194;9.900;2024-02-26T08:48:59;0.90;;;0.90;;
14231;SDS011;7200;52.194;9.900;2024-02-26T08:51:25;0.40;;;0.40;;
14231;SDS011;7200;52.194;9.900;2024-02-26T08:53:50;0.60;;;0.60;;
14231;SDS011;7200;52.194;9.900;2024-02-26T08:56:16;0.30;;;0.30;;
14231;SDS011;7200;52.194;9.900;2024-02-26T08:58:42;0.40;;;0.40;;
14231;SDS011;7200;52.194;9.900;2024-02-26T09:01:08;0.73;;;0.73;;
14231;SDS011;7200;52.194;9.900;2024-02-26T09:03:34;1.33;;;1.33;;
14231;SDS011;7200;52.194;9.900;2024-02-26T09:05:59;0.60;;;0.60;;
14231;SDS011;7200;52.194;9.900;2024-02-26T09:08:25;1.33;;;1.23;;
14231;SDS011;7200;52.194;9.900;2024-02-26T09:10:50;1.53;;;1.07;;
14231;SDS011;7200;52.194;9.900;2024-02-26T09:13:15;1.20;;;1.17;;
14231;SDS011;7200;52.194;9.900;2024-02-26T09:15:40;0.57;;;0.57;;
14231;SDS011;7200;52.194;9.900;2024-02-26T09:18:06;0.90;;;0.90;;
14231;SDS011;7200;52.194;9.900;2024-02-26T09:20:31;2.70;;;1.40;;
14231;SDS011;7200;52.194;9.900;2024-02-26T09:22:56;0.67;;;0.67;;
14231;SDS011;7200;52.194;9.900;2024-02-26T09:25:22;0.90;;;0.90;;
14231;SDS011;7200;52.194;9.900;2024-02-26T09:27:47;0.57;;;0.57;;
14231;SDS011;7200;52.194;9.900;2024-02-26T09:30:13;1.23;;;1.23;;
14231;SDS011;7200;52.194;9.900;2024-02-26T09:32:39;0.63;;;0.63;;
14231;SDS011;7200;52.194;9.900;2024-02-26T09:35:07;0.50;;;0.50;;
14231;SDS011;7200;52.194;9.900;2024-02-26T09:37:33;0.70;;;0.70;;
14231;SDS011;7200;52.194;9.900;2024-02-26T09:39:58;0.80;;;0.80;;
14231;SDS011;7200;52.194;9.900;2024-02-26T09:42:27;1.40;;;1.30;;
14231;SDS011;7200;52.194;9.900;2024-02-26T09:44:55;0.50;;;0.50;;
14231;SDS011;7200;52.194;9.900;2024-02-26T09:47:26;1.67;;;1.57;;
14231;SDS011;7200;52.194;9.900;2024-02-26T09:49:56;0.90;;;0.90;;
14231;SDS011;7200;52.194;9.900;2024-02-26T09:52:21;2.07;;;1.97;;
14231;SDS011;7200;52.194;9.900;2024-02-26T09:54:49;1.07;;;1.07;;
14231;SDS011;7200;52.194;9.900;2024-02-26T09:57:15;0.90;;;0.90;;
14231;SDS011;7200;52.194;9.900;2024-02-26T09:59:42;1.73;;;1.73;;
14231;SDS011;7200;52.194;9.900;2024-02-26T10:02:14;0.70;;;0.70;;
14231;SDS011;7200;52.194;9.900;2024-02-26T10:04:40;0.73;;;0.73;;
14231;SDS011;7200;52.194;9.900;2024-02-26T10:07:09;0.77;;;0.77;;
14231;SDS011;7200;52.194;9.900;2024-02-26T10:09:36;1.63;;;1.57;;
14231;SDS011;7200;52.194;9.900;2024-02-26T10:12:02;1.43;;;1.33;;
14231;SDS011;7200;52.194;9.900;2024-02-26T10:14:28;0.67;;;0.67;;
14231;SDS011;7200;52.194;9.900;2024-02-26T10:16:53;0.70;;;0.70;;
14231;SDS011;7200;52.194;9.900;2024-02-26T10:19:25;0.60;;;0.60;;
14231;SDS011;7200;52.194;9.900;2024-02-26T10:21:58;1.10;;;1.10;;
14231;SDS011;7200;52.194;9.900;2024-02-26T10:24:25;1.17;;;1.07;;
14231;SDS011;7200;52.194;9.900;2024-02-26T10:26:52;1.03;;;1.03;;
14231;SDS011;7200;52.194;9.900;2024-02-26T10:29:18;0.77;;;0.77;;
14231;SDS011;7200;52.194;9.900;2024-02-26T10:31:44;1.57;;;1.47;;
14231;SDS011;7200;52.194;9.900;2024-02-26T10:34:10;1.03;;;1.03;;
14231;SDS011;7200;52.194;9.900;2024-02-26T10:36:35;1.20;;;1.20;;
14231;SDS011;7200;52.194;9.900;2024-02-26T10:39:02;0.70;;;0.70;;
14231;SDS011;7200;52.194;9.900;2024-02-26T10:41:29;10.70;;;1.80;;
14231;SDS011;7200;52.194;9.900;2024-02-26T10:43:55;1.33;;;1.33;;
14231;SDS011;7200;52.194;9.900;2024-02-26T10:46:20;1.00;;;1.00;;
14231;SDS011;7200;52.194;9.900;2024-02-26T10:48:52;1.10;;;1.10;;
14231;SDS011;7200;52.194;9.900;2024-02-26T10:51:29;1.13;;;1.13;;
14231;SDS011;7200;52.194;9.900;2024-02-26T10:53:55;11.73;;;1.53;;
14231;SDS011;7200;52.194;9.900;2024-02-26T10:56:29;1.37;;;1.37;;
14231;SDS011;7200;52.194;9.900;2024-02-26T10:58:59;1.83;;;1.40;;
14231;SDS011;7200;52.194;9.900;2024-02-26T11:01:26;1.90;;;1.57;;
14231;SDS011;7200;52.194;9.900;2024-02-26T11:03:54;4.57;;;1.30;;
14231;SDS011;7200;52.194;9.900;2024-02-26T11:06:21;0.90;;;0.90;;
14231;SDS011;7200;52.194;9.900;2024-02-26T11:08:50;0.70;;;0.70;;
14231;SDS011;7200;52.194;9.900;2024-02-26T11:11:17;1.23;;;1.10;;
14231;SDS011;7200;52.194;9.900;2024-02-26T11:13:44;1.30;;;1.30;;
14231;SDS011;7200;52.194;9.900;2024-02-26T11:16:14;0.87;;;0.87;;
14231;SDS011;7200;52.194;9.900;2024-02-26T11:18:42;0.80;;;0.80;;
14231;SDS011;7200;52.194;9.900;2024-02-26T11:21:13;1.13;;;1.10;;
14231;SDS011;7200;52.194;9.900;2024-02-26T11:23:52;0.60;;;0.60;;
14231;SDS011;7200;52.194;9.900;2024-02-26T11:26:18;1.57;;;1.47;;
14231;SDS011;7200;52.194;9.900;2024-02-26T11:28:45;1.33;;;1.33;;
14231;SDS011;7200;52.194;9.900;2024-02-26T11:31:11;0.80;;;0.80;;
14231;SDS011;7200;52.194;9.900;2024-02-26T11:33:38;0.90;;;0.90;;
14231;SDS011;7200;52.194;9.900;2024-02-26T11:36:09;0.60;;;0.60;;
14231;SDS011;7200;52.194;9.900;2024-02-26T11:38:36;0.80;;;0.80;;
14231;SDS011;7200;52.194;9.900;2024-02-26T11:41:02;0.87;;;0.87;;
14231;SDS011;7200;52.194;9.900;2024-02-26T11:46:30;0.73;;;0.73;;
14231;SDS011;7200;52.194;9.900;2024-02-26T11:48:57;0.97;;;0.97;;
14231;SDS011;7200;52.194;9.900;2024-02-26T11:51:27;0.87;;;0.87;;
14231;SDS011;7200;52.194;9.900;2024-02-26T11:53:57;0.90;;;0.90;;
14231;SDS011;7200;52.194;9.900;2024-02-26T11:56:23;1.40;;;1.30;;
14231;SDS011;7200;52.194;9.900;2024-02-26T11:58:58;1.23;;;1.13;;
14231;SDS011;7200;52.194;9.900;2024-02-26T12:01:39;1.00;;;1.00;;
14231;SDS011;7200;52.194;9.900;2024-02-26T12:04:06;1.00;;;1.00;;
14231;SDS011;7200;52.194;9.900;2024-02-26T12:06:43;0.80;;;0.80;;
14231;SDS011;7200;52.194;9.900;2024-02-26T12:09:11;0.50;;;0.50;;
14231;SDS011;7200;52.194;9.900;2024-02-26T12:11:38;1.83;;;1.73;;
14231;SDS011;7200;52.194;9.900;2024-02-26T12:14:05;1.33;;;1.03;;
14231;SDS011;7200;52.194;9.900;2024-02-26T12:16:35;1.50;;;1.50;;
14231;SDS011;7200;52.194;9.900;2024-02-26T12:19:05;1.23;;;1.23;;
14231;SDS011;7200;52.194;9.900;2024-02-26T12:21:35;0.80;;;0.80;;
14231;SDS011;7200;52.194;9.900;2024-02-26T12:24:11;2.07;;;1.97;;
14231;SDS011;7200;52.194;9.900;2024-02-26T12:26:38;1.80;;;1.40;;
14231;SDS011;7200;52.194;9.900;2024-02-26T12:29:04;5.40;;;0.90;;
14231;SDS011;7200;52.194;9.900;2024-02-26T12:31:30;2.33;;;1.53;;
14231;SDS011;7200;52.194;9.900;2024-02-26T12:33:56;1.23;;;1.23;;
14231;SDS011;7200;52.194;9.900;2024-02-26T12:36:22;2.10;;;1.90;;
14231;SDS011;7200;52.194;9.900;2024-02-26T12:38:48;1.57;;;1.47;;
14231;SDS011;7200;52.194;9.900;2024-02-26T12:41:15;1.03;;;0.90;;
14231;SDS011;7200;52.194;9.900;2024-02-26T12:43:41;1.53;;;1.50;;
14231;SDS011;7200;52.194;9.900;2024-02-26T12:46:06;5.13;;;1.80;;
14231;SDS011;7200;52.194;9.900;2024-02-26T12:48:31;1.67;;;1.57;;
14231;SDS011;7200;52.194;9.900;2024-02-26T12:50:57;1.33;;;1.33;;
14231;SDS011;7200;52.194;9.900;2024-02-26T12:53:22;3.23;;;2.17;;
14231;SDS011;7200;52.194;9.900;2024-02-26T12:55:48;3.73;;;2.53;;
14231;SDS011;7200;52.194;9.900;2024-02-26T12:58:14;1.93;;;1.60;;
14231;SDS011;7200;52.194;9.900;2024-02-26T13:00:40;1.87;;;1.77;;
14231;SDS011;7200;52.194;9.900;2024-02-26T13:03:06;1.77;;;1.67;;
14231;SDS011;7200;52.194;9.900;2024-02-26T13:05:31;1.10;;;1.10;;
14231;SDS011;7200;52.194;9.900;2024-02-26T13:07:58;1.13;;;1.13;;
14231;SDS011;7200;52.194;9.900;2024-02-26T13:10:23;1.97;;;1.87;;
14231;SDS011;7200;52.194;9.900;2024-02-26T13:12:50;2.67;;;2.47;;
14231;SDS011;7200;52.194;9.900;2024-02-26T13:15:19;1.67;;;1.57;;
14231;SDS011;7200;52.194;9.900;2024-02-26T13:17:46;3.03;;;2.70;;
14231;SDS011;7200;52.194;9.900;2024-02-26T13:20:13;1.33;;;1.33;;
14231;SDS011;7200;52.194;9.900;2024-02-26T13:22:49;3.80;;;2.37;;
14231;SDS011;7200;52.194;9.900;2024-02-26T13:25:14;4.27;;;0.97;;
14231;SDS011;7200;52.194;9.900;2024-02-26T13:27:45;1.97;;;1.27;;
14231;SDS011;7200;52.194;9.900;2024-02-26T13:30:11;1.90;;;1.80;;
14231;SDS011;7200;52.194;9.900;2024-02-26T13:32:38;0.60;;;0.60;;
14231;SDS011;7200;52.194;9.900;2024-02-26T13:35:05;1.83;;;1.83;;
14231;SDS011;7200;52.194;9.900;2024-02-26T13:37:34;1.07;;;1.03;;
14231;SDS011;7200;52.194;9.900;2024-02-26T13:40:00;5.30;;;2.73;;
14231;SDS011;7200;52.194;9.900;2024-02-26T13:42:29;3.87;;;3.37;;
14231;SDS011;7200;52.194;9.900;2024-02-26T13:44:55;3.33;;;2.50;;
14231;SDS011;7200;52.194;9.900;2024-02-26T13:47:20;0.80;;;0.80;;
14231;SDS011;7200;52.194;9.900;2024-02-26T13:49:45;3.30;;;3.00;;
14231;SDS011;7200;52.194;9.900;2024-02-26T13:52:11;1.10;;;1.10;;
14231;SDS011;7200;52.194;9.900;2024-02-26T13:54:36;1.90;;;1.60;;
14231;SDS011;7200;52.194;9.900;2024-02-26T13:57:03;2.73;;;2.53;;
14231;SDS011;7200;52.194;9.900;2024-02-26T13:59:29;1.73;;;1.63;;
14231;SDS011;7200;52.194;9.900;2024-02-26T14:01:54;0.93;;;0.93;;
14231;SDS011;7200;52.194;9.900;2024-02-26T14:04:20;2.70;;;2.50;;
14231;SDS011;7200;52.194;9.900;2024-02-26T14:06:45;3.30;;;2.83;;
14231;SDS011;7200;52.194;9.900;2024-02-26T14:09:10;1.97;;;1.80;;
14231;SDS011;7200;52.194;9.900;2024-02-26T14:11:36;1.43;;;1.43;;
14231;SDS011;7200;52.194;9.900;2024-02-26T14:14:02;1.97;;;1.80;;
14231;SDS011;7200;52.194;9.900;2024-02-26T14:16:28;1.83;;;1.20;;
14231;SDS011;7200;52.194;9.900;2024-02-26T14:18:53;3.17;;;2.87;;
14231;SDS011;7200;52.194;9.900;2024-02-26T14:21:18;2.53;;;2.33;;
14231;SDS011;7200;52.194;9.900;2024-02-26T14:23:43;2.40;;;2.27;;
14231;SDS011;7200;52.194;9.900;2024-02-26T14:26:09;1.17;;;1.17;;
14231;SDS011;7200;52.194;9.900;2024-02-26T14:28:35;0.87;;;0.87;;
14231;SDS011;7200;52.194;9.900;2024-02-26T14:31:01;1.37;;;1.37;;
14231;SDS011;7200;52.194;9.900;2024-02-26T14:33:26;0.67;;;0.67;;
14231;SDS011;7200;52.194;9.900;2024-02-26T14:35:51;2.40;;;2.30;;
14231;SDS011;7200;52.194;9.900;2024-02-26T14:38:16;2.83;;;2.57;;
14231;SDS011;7200;52.194;9.900;2024-02-26T14:40:42;1.17;;;1.07;;
14231;SDS011;7200;52.194;9.900;2024-02-26T14:43:07;3.00;;;2.20;;
14231;SDS011;7200;52.194;9.900;2024-02-26T14:45:34;1.93;;;1.93;;
14231;SDS011;7200;52.194;9.900;2024-02-26T14:48:00;1.67;;;1.67;;
14231;SDS011;7200;52.194;9.900;2024-02-26T14:50:25;2.47;;;2.00;;
14231;SDS011;7200;52.194;9.900;2024-02-26T14:52:50;0.70;;;0.70;;
14231;SDS011;7200;52.194;9.900;2024-02-26T14:55:16;0.83;;;0.83;;
14231;SDS011;7200;52.194;9.900;2024-02-26T14:57:41;1.30;;;1.20;;